Time;durP1;ratioP1;P1;durP2;ratioP2;P2;SDS_P1;SDS_P2;PMS_P1;PMS_P2;Temp;Humidity;BMP_temperature;BMP_pressure;BME280_temperature;BME280_humidity;BME280_pressure;Samples;Min_cycle;Max_cycle;Signal;HPM_P1;HPM_P2
2023/06/12 00:00:35;;;;;;;;;6.00;6.00;;;;;12.81;98.67;98727.50;4854312;28;101771;-87
2023/06/12 00:03:02;;;;;;;;;6.75;6.00;;;;;12.72;99.18;98713.31;4865259;28;103190;-87
2023/06/12 00:05:45;;;;;;;;;6.50;6.00;;;;;12.70;99.19;98703.75;4854153;28;103606;-87
2023/06/12 00:08:42;;;;;;;;;4.00;4.00;;;;;12.77;99.44;98720.81;4848632;28;101784;-86
2023/06/12 00:11:30;;;;;;;;;4.75;3.00;;;;;12.74;99.74;98718.53;4854473;28;101583;-87
2023/06/12 00:14:14;;;;;;;;;4.00;4.00;;;;;12.68;98.75;98717.50;4857260;28;102766;-87
2023/06/12 00:16:57;;;;;;;;;4.25;4.25;;;;;12.67;99.30;98712.28;4844400;28;106588;-87
2023/06/12 00:19:24;;;;;;;;;3.00;3.00;;;;;12.69;98.37;98723.78;4856104;28;101887;-86
2023/06/12 00:21:52;;;;;;;;;3.00;3.00;;;;;12.61;100.00;98715.84;4851217;28;102290;-87
2023/06/12 00:24:19;;;;;;;;;5.00;5.00;;;;;12.48;100.00;98714.81;4856545;28;101468;-87
2023/06/12 00:26:46;;;;;;;;;4.00;4.00;;;;;12.37;100.00;98695.66;4853093;28;103406;-87
2023/06/12 00:29:13;;;;;;;;;3.50;3.50;;;;;12.45;100.00;98717.94;4848966;28;101927;-86
2023/06/12 00:31:40;;;;;;;;;3.00;3.00;;;;;12.40;100.00;98706.06;4856287;28;101773;-87
2023/06/12 00:34:07;;;;;;;;;3.25;3.25;;;;;12.37;100.00;98703.78;4855141;28;101828;-87
2023/06/12 00:36:35;;;;;;;;;4.50;4.50;;;;;12.42;100.00;98707.53;4852906;28;103465;-87
2023/06/12 00:39:03;;;;;;;;;4.00;3.00;;;;;12.36;100.00;98708.38;4852755;28;102622;-86
2023/06/12 00:41:30;;;;;;;;;5.00;4.00;;;;;12.32;100.00;98711.69;4851120;28;102030;-87
2023/06/12 00:43:57;;;;;;;;;4.75;4.75;;;;;12.27;100.00;98704.19;4855471;28;101851;-87
2023/06/12 00:46:24;;;;;;;;;2.00;2.00;;;;;12.14;100.00;98689.81;4853160;28;102381;-86
2023/06/12 00:48:52;;;;;;;;;3.00;3.00;;;;;12.26;100.00;98702.53;4856837;28;101560;-87
2023/06/12 00:51:20;;;;;;;;;4.00;4.00;;;;;12.25;100.00;98721.69;4852193;28;106770;-86
2023/06/12 00:53:47;;;;;;;;;3.00;3.00;;;;;12.18;100.00;98712.75;4886441;28;101806;-87
2023/06/12 00:56:14;;;;;;;;;3.25;2.50;;;;;12.15;100.00;98705.88;4856887;28;103522;-83
2023/06/12 00:58:42;;;;;;;;;4.50;4.50;;;;;11.84;100.00;98667.72;4857652;28;101612;-86
2023/06/12 01:01:10;;;;;;;;;6.50;6.50;;;;;12.12;100.00;98716.28;4857695;28;101917;-86
2023/06/12 01:03:38;;;;;;;;;4.00;4.00;;;;;12.04;100.00;98710.03;4854963;28;101531;-87
2023/06/12 01:06:25;;;;;;;;;5.50;4.00;;;;;11.78;100.00;98682.09;4856613;28;103367;-87
2023/06/12 01:09:43;;;;;;;;;3.25;3.00;;;;;11.91;100.00;98715.44;4851597;28;101512;-86
2023/06/12 01:12:27;;;;;;;;;2.75;2.00;;;;;11.81;100.00;98693.34;4852313;28;101792;-86
2023/06/12 01:15:19;;;;;;;;;4.50;3.00;;;;;11.71;100.00;98684.72;4857294;28;102282;-87
2023/06/12 01:18:03;;;;;;;;;3.00;2.50;;;;;11.82;100.00;98710.44;4854207;28;106942;-87
2023/06/12 01:20:40;;;;;;;;;3.75;3.75;;;;;11.74;100.00;98697.91;4854208;28;101721;-86
2023/06/12 01:23:44;;;;;;;;;3.00;2.75;;;;;11.81;100.00;98708.75;4850939;28;101517;-86
2023/06/12 01:26:42;;;;;;;;;3.00;3.00;;;;;11.79;100.00;98713.56;4849716;28;103085;-87
2023/06/12 01:29:15;;;;;;;;;1.50;1.00;;;;;11.76;100.00;98706.66;4883488;28;107984;-87
2023/06/12 01:32:04;;;;;;;;;2.00;2.00;;;;;11.70;100.00;98703.91;4856845;28;101481;-88
2023/06/12 01:35:00;;;;;;;;;3.00;3.00;;;;;11.62;100.00;98713.88;4852397;28;102955;-87
2023/06/12 01:37:37;;;;;;;;;2.75;1.75;;;;;11.61;100.00;98709.53;4853761;28;101960;-87
2023/06/12 01:40:07;;;;;;;;;4.75;3.50;;;;;11.46;100.00;98684.50;4852299;28;103095;-87
2023/06/12 01:42:34;;;;;;;;;4.50;4.00;;;;;11.55;100.00;98710.34;4852354;28;101915;-86
2023/06/12 01:45:02;;;;;;;;;3.00;3.00;;;;;11.38;100.00;98691.97;4857276;28;101732;-87
2023/06/12 01:47:29;;;;;;;;;5.75;5.25;;;;;11.50;100.00;98717.41;4856713;28;101658;-87
2023/06/12 01:49:57;;;;;;;;;3.50;3.50;;;;;11.48;100.00;98728.44;4858645;28;103405;-87
2023/06/12 01:52:24;;;;;;;;;1.50;1.50;;;;;11.41;100.00;98724.03;4857106;28;101929;-87
2023/06/12 01:54:51;;;;;;;;;2.00;2.00;;;;;11.34;100.00;98715.91;4854405;28;101617;-87
2023/06/12 01:57:19;;;;;;;;;2.25;1.50;;;;;11.37;100.00;98723.63;4848385;28;101476;-88
2023/06/12 01:59:48;;;;;;;;;2.00;2.00;;;;;11.17;100.00;98704.59;4847287;28;107960;-88
2023/06/12 02:02:16;;;;;;;;;2.00;2.00;;;;;11.25;100.00;98722.53;4854991;28;101630;-86
2023/06/12 02:04:43;;;;;;;;;2.50;2.50;;;;;10.93;100.00;98682.63;4856964;28;101465;-87
2023/06/12 02:07:11;;;;;;;;;2.00;2.00;;;;;11.06;100.00;98696.22;4852458;28;101563;-88
2023/06/12 02:09:38;;;;;;;;;4.00;4.00;;;;;11.16;100.00;98727.31;4859273;28;103518;-87
2023/06/12 02:12:05;;;;;;;;;2.00;2.00;;;;;11.06;100.00;98709.75;4859266;28;101465;-87
2023/06/12 02:14:33;;;;;;;;;2.00;2.00;;;;;11.13;100.00;98721.44;4853057;28;101778;-87
2023/06/12 02:17:02;;;;;;;;;4.25;4.25;;;;;11.05;100.00;98717.03;4857082;28;101565;-87
2023/06/12 02:19:29;;;;;;;;;2.00;2.00;;;;;11.11;100.00;98728.94;4887911;28;102570;-88
2023/06/12 02:21:57;;;;;;;;;4.75;4.00;;;;;11.07;100.00;98723.09;4853456;28;101424;-88
2023/06/12 02:24:29;;;;;;;;;1.00;1.00;;;;;11.06;100.00;98721.41;4859177;28;101382;-87
2023/06/12 02:26:56;;;;;;;;;3.75;3.00;;;;;11.03;100.00;98721.78;4891004;28;101456;-87
2023/06/12 02:29:24;;;;;;;;;2.50;2.50;;;;;11.02;100.00;98725.56;4858210;28;103933;-87
2023/06/12 02:31:51;;;;;;;;;3.00;3.00;;;;;10.94;100.00;98714.88;4858953;28;102755;-86
2023/06/12 02:34:18;;;;;;;;;1.00;1.00;;;;;11.00;100.00;98727.63;4863728;28;101525;-88
2023/06/12 02:36:46;;;;;;;;;4.25;4.00;;;;;11.00;100.00;98726.78;4871870;28;101087;-86
2023/06/12 02:39:14;;;;;;;;;1.75;1.75;;;;;10.99;100.00;98727.81;4860504;28;103120;-87
2023/06/12 02:41:45;;;;;;;;;4.00;3.00;;;;;10.97;100.00;98721.78;4858489;28;101901;-87
2023/06/12 02:44:12;;;;;;;;;2.00;2.00;;;;;10.95;100.00;98729.25;4846507;28;101563;-88
2023/06/12 02:46:55;;;;;;;;;2.50;2.50;;;;;10.96;100.00;98733.63;4857998;28;103585;-87
2023/06/12 02:49:25;;;;;;;;;3.25;3.25;;;;;10.90;100.00;98734.41;4855006;28;107832;-87
2023/06/12 02:51:52;;;;;;;;;4.00;2.00;;;;;10.89;100.00;98725.50;4861268;28;101609;-87
2023/06/12 02:54:22;;;;;;;;;1.75;1.75;;;;;10.94;100.00;98738.44;4855951;28;101556;-79
2023/06/12 02:56:49;;;;;;;;;3.00;3.00;;;;;10.79;100.00;98718.78;4856468;28;103257;-87
2023/06/12 02:59:22;;;;;;;;;5.00;4.00;;;;;10.98;100.00;98742.41;4850897;28;108778;-87
2023/06/12 03:01:49;;;;;;;;;1.75;1.75;;;;;11.00;100.00;98751.13;4854312;28;101644;-87
2023/06/12 03:04:22;;;;;;;;;5.00;5.00;;;;;10.95;100.00;98740.06;4854555;28;101976;-87
2023/06/12 03:06:53;;;;;;;;;3.50;3.00;;;;;10.99;100.00;98752.16;4853792;28;101603;-87
2023/06/12 03:09:21;;;;;;;;;5.00;5.00;;;;;10.84;100.00;98719.00;4856019;28;107935;-87
2023/06/12 03:11:51;;;;;;;;;6.00;6.00;;;;;11.01;100.00;98750.09;4859614;28;102333;-87
2023/06/12 03:14:24;;;;;;;;;3.00;2.25;;;;;10.99;100.00;98746.75;4853069;28;101707;-88
2023/06/12 03:16:52;;;;;;;;;3.50;3.50;;;;;10.90;100.00;98737.97;4850772;28;102774;-88
2023/06/12 03:19:19;;;;;;;;;4.75;4.75;;;;;10.87;100.00;98729.41;4853399;28;103564;-88
2023/06/12 03:21:46;;;;;;;;;5.50;5.00;;;;;10.95;100.00;98751.72;4858776;28;101605;-88
2023/06/12 03:24:13;;;;;;;;;11.00;9.50;;;;;11.03;100.00;98753.47;4855196;28;101422;-88
2023/06/12 03:26:41;;;;;;;;;4.25;3.25;;;;;11.06;100.00;98761.16;4858330;28;101807;-89
2023/06/12 03:29:09;;;;;;;;;5.00;4.00;;;;;11.00;100.00;98748.44;4853211;28;103680;-88
2023/06/12 03:31:37;;;;;;;;;7.25;6.75;;;;;11.06;100.00;98753.88;4849985;28;101895;-88
2023/06/12 03:34:05;;;;;;;;;7.75;7.00;;;;;11.01;100.00;98763.63;4852234;28;101454;-88
2023/06/12 03:36:37;;;;;;;;;6.75;6.00;;;;;11.06;100.00;98763.88;4855617;28;101774;-88
2023/06/12 03:39:05;;;;;;;;;10.25;10.00;;;;;10.94;100.00;98751.94;4855969;28;103374;-89
2023/06/12 03:41:32;;;;;;;;;5.75;5.00;;;;;10.96;100.00;98756.13;4841787;28;101869;-88
2023/06/12 03:44:00;;;;;;;;;13.75;13.75;;;;;11.04;100.00;98763.22;4855404;28;102083;-86
2023/06/12 03:46:30;;;;;;;;;16.00;12.50;;;;;11.07;100.00;98768.25;4844236;28;101424;-84
2023/06/12 03:48:58;;;;;;;;;12.75;10.25;;;;;11.03;100.00;98765.09;4854425;28;102539;-87
2023/06/12 03:51:25;;;;;;;;;7.75;7.75;;;;;11.10;100.00;98767.84;4854051;28;101893;-87
2023/06/12 03:53:53;;;;;;;;;13.50;13.00;;;;;11.01;100.00;98736.56;4852336;28;101838;-85
2023/06/12 03:56:20;;;;;;;;;7.50;6.50;;;;;11.19;100.00;98756.66;4859190;28;105874;-87
2023/06/12 03:58:49;;;;;;;;;7.00;7.00;;;;;11.26;100.00;98756.66;4854601;28;107965;-86
2023/06/12 04:01:16;;;;;;;;;7.25;6.00;;;;;11.36;100.00;98753.59;4883032;28;101707;-88
2023/06/12 04:03:44;;;;;;;;;5.00;5.00;;;;;11.50;100.00;98764.28;4855716;28;101372;-88
2023/06/12 04:06:12;;;;;;;;;5.00;4.00;;;;;11.53;100.00;98750.31;4852332;28;101597;-87
2023/06/12 04:08:39;;;;;;;;;4.00;3.00;;;;;11.68;100.00;98769.13;4851600;28;102688;-87
2023/06/12 04:11:09;;;;;;;;;3.00;3.00;;;;;11.80;100.00;98772.09;4854219;28;101714;-87
2023/06/12 04:13:36;;;;;;;;;10.00;9.00;;;;;11.74;100.00;98775.63;4853066;28;101895;-87
2023/06/12 04:16:03;;;;;;;;;7.25;7.00;;;;;11.69;100.00;98743.72;4855984;28;101577;-89
2023/06/12 04:18:31;;;;;;;;;7.00;7.00;;;;;11.83;100.00;98760.88;4855668;28;103358;-87
2023/06/12 04:21:00;;;;;;;;;7.00;6.00;;;;;11.92;100.00;98754.22;4850903;28;101716;-87
2023/06/12 04:23:31;;;;;;;;;6.50;5.75;;;;;12.03;100.00;98743.59;4851181;28;101670;-88
2023/06/12 04:26:07;;;;;;;;;7.75;6.25;;;;;12.19;100.00;98745.06;4855016;28;102249;-89
2023/06/12 04:28:35;;;;;;;;;6.00;6.00;;;;;12.26;100.00;98751.31;4858397;28;103640;-87
2023/06/12 04:31:02;;;;;;;;;5.75;5.50;;;;;12.42;100.00;98755.50;4857445;28;102275;-87
2023/06/12 04:33:30;;;;;;;;;11.25;8.50;;;;;12.22;100.00;98744.66;4858540;28;101780;-88
2023/06/12 04:36:03;;;;;;;;;7.00;5.75;;;;;12.53;100.00;98768.41;4856650;28;101729;-87
2023/06/12 04:38:30;;;;;;;;;10.75;6.75;;;;;12.60;100.00;98752.16;4858020;28;103338;-86
2023/06/12 04:40:58;;;;;;;;;8.25;7.75;;;;;12.92;100.00;98773.00;4852763;28;102391;-88
2023/06/12 04:43:26;;;;;;;;;9.00;8.25;;;;;13.11;99.22;98774.84;4855156;28;101819;-87
2023/06/12 04:45:53;;;;;;;;;8.25;7.50;;;;;13.35;95.33;98757.00;4860132;28;103042;-87
2023/06/12 04:48:24;;;;;;;;;8.25;7.50;;;;;14.02;95.29;98783.63;4858234;28;103443;-86
2023/06/12 04:50:54;;;;;;;;;7.00;5.75;;;;;14.45;90.93;98770.19;4858933;28;101931;-86
2023/06/12 04:53:27;;;;;;;;;8.50;7.75;;;;;14.92;89.58;98776.03;4859317;28;102114;-88
2023/06/12 04:55:56;;;;;;;;;10.00;9.50;;;;;15.20;89.04;98795.44;4858985;28;101516;-87
2023/06/12 04:58:23;;;;;;;;;8.25;7.00;;;;;15.46;87.65;98791.56;4852667;28;103501;-87
2023/06/12 05:00:55;;;;;;;;;8.25;7.00;;;;;15.40;86.33;98792.50;4855122;28;107377;-82
2023/06/12 05:03:23;;;;;;;;;8.75;8.00;;;;;15.11;85.90;98778.56;4858508;28;101670;-87
2023/06/12 05:05:55;;;;;;;;;8.00;7.00;;;;;15.62;86.46;98788.28;4860421;28;101645;-88
2023/06/12 05:08:22;;;;;;;;;8.25;8.00;;;;;15.93;84.50;98782.63;4858231;28;103495;-88
2023/06/12 05:10:49;;;;;;;;;7.00;7.00;;;;;15.98;82.96;98792.84;4853069;28;101338;-86
2023/06/12 05:13:16;;;;;;;;;8.00;6.50;;;;;16.45;83.46;98777.44;4852539;28;101486;-86
2023/06/12 05:15:43;;;;;;;;;7.00;7.00;;;;;16.14;80.11;98736.78;4855646;28;101852;-89
2023/06/12 05:18:10;;;;;;;;;7.25;7.00;;;;;16.00;82.01;98790.69;4855667;28;103505;-89
2023/06/12 05:20:37;;;;;;;;;8.00;7.00;;;;;16.06;83.03;98782.44;4836814;28;101918;-87
2023/06/12 05:23:05;;;;;;;;;8.25;8.25;;;;;15.87;83.15;98779.97;4851785;28;101577;-86
2023/06/12 05:25:32;;;;;;;;;8.50;7.50;;;;;16.36;77.72;98784.28;4883539;28;101812;-85
2023/06/12 05:27:59;;;;;;;;;7.50;7.50;;;;;17.02;76.38;98784.03;4855065;28;103451;-85
2023/06/12 05:30:26;;;;;;;;;6.67;6.00;;;;;16.86;74.29;98788.31;4850632;28;101693;-87
2023/06/12 05:32:53;;;;;;;;;7.33;7.00;;;;;16.28;75.80;98787.38;4859143;28;101538;-84
2023/06/12 05:35:20;;;;;;;;;8.00;6.00;;;;;16.05;77.80;98772.59;4862423;28;101678;-87
2023/06/12 05:37:47;;;;;;;;;5.00;5.00;;;;;16.83;79.40;98791.53;4864453;28;108013;-87
2023/06/12 05:40:14;;;;;;;;;7.00;7.00;;;;;16.79;73.91;98748.56;4871395;28;102623;-89
2023/06/12 05:42:41;;;;;;;;;4.33;4.33;;;;;17.32;72.87;98779.28;4867309;28;101802;-84
2023/06/12 05:45:09;;;;;;;;;5.00;4.00;;;;;17.42;71.83;98791.50;4854308;28;102418;-86
2023/06/12 05:47:36;;;;;;;;;6.00;6.00;;;;;17.69;72.64;98789.94;4844357;28;103350;-87
2023/06/12 05:50:03;;;;;;;;;6.67;6.67;;;;;17.36;70.98;98775.00;4856074;28;101580;-85
2023/06/12 05:52:31;;;;;;;;;4.67;4.67;;;;;17.49;66.65;98790.28;4860938;28;101796;-84
2023/06/12 05:54:58;;;;;;;;;5.00;5.00;;;;;17.63;68.10;98801.81;4854664;28;101830;-83
2023/06/12 05:57:25;;;;;;;;;7.00;5.67;;;;;17.89;67.12;98794.97;4855239;28;103759;-84
2023/06/12 05:59:52;;;;;;;;;7.67;5.00;;;;;17.89;69.42;98801.28;4859191;28;101671;-85
2023/06/12 06:02:19;;;;;;;;;5.00;5.00;;;;;18.06;66.75;98790.38;4851081;28;101837;-86
2023/06/12 06:04:47;;;;;;;;;4.67;4.33;;;;;18.38;67.71;98797.00;4854543;28;101924;-86
2023/06/12 06:07:14;;;;;;;;;5.00;5.00;;;;;18.49;63.04;98785.16;4860309;28;103378;-85
2023/06/12 06:09:44;;;;;;;;;3.33;3.33;;;;;18.91;64.34;98791.09;4859468;28;102775;-86
2023/06/12 06:12:11;;;;;;;;;3.67;3.67;;;;;19.07;65.73;98792.16;4857361;28;101963;-88
2023/06/12 06:14:38;;;;;;;;;7.67;5.00;;;;;18.22;64.47;98801.38;4860299;28;101635;-85
2023/06/12 06:17:05;;;;;;;;;4.00;3.33;;;;;18.25;63.69;98750.78;4857222;28;103066;-86
2023/06/12 06:19:32;;;;;;;;;6.00;5.00;;;;;18.03;63.35;98801.81;4856024;28;101534;-85
2023/06/12 06:21:59;;;;;;;;;4.00;4.00;;;;;18.41;62.33;98802.00;4853219;28;101914;-83
2023/06/12 06:24:26;;;;;;;;;5.00;4.00;;;;;17.86;63.91;98803.66;4853103;28;101575;-87
2023/06/12 06:26:54;;;;;;;;;4.67;4.00;;;;;17.99;62.38;98795.19;4856263;28;102256;-82
2023/06/12 06:29:21;;;;;;;;;3.67;3.67;;;;;18.46;62.37;98787.56;4856424;28;101573;-86
2023/06/12 06:31:48;;;;;;;;;3.00;2.00;;;;;18.57;62.07;98795.75;4856900;28;101695;-86
2023/06/12 06:34:15;;;;;;;;;3.67;3.67;;;;;18.48;63.39;98779.94;4858280;28;101815;-87
2023/06/12 06:36:42;;;;;;;;;4.00;4.00;;;;;18.67;62.10;98781.38;4851944;28;103656;-87
2023/06/12 06:39:09;;;;;;;;;5.67;4.00;;;;;19.04;58.51;98792.69;4853424;28;102008;-87
2023/06/12 06:41:37;;;;;;;;;3.00;3.00;;;;;19.09;59.60;98784.53;4850339;28;101660;-87
2023/06/12 06:44:05;;;;;;;;;1.67;1.67;;;;;19.22;58.93;98784.19;4855335;28;101772;-85
2023/06/12 06:46:32;;;;;;;;;4.33;3.67;;;;;19.54;58.45;98798.91;4846077;28;103624;-87
2023/06/12 06:48:59;;;;;;;;;2.67;1.67;;;;;19.48;57.54;98801.84;4850588;28;102390;-91
2023/06/12 06:51:27;;;;;;;;;0.67;0.67;;;;;19.35;60.30;98786.56;4848060;28;101443;-87
2023/06/12 06:53:54;;;;;;;;;3.33;3.33;;;;;19.53;59.07;98800.00;4855057;28;101770;-86
2023/06/12 06:56:21;;;;;;;;;2.67;2.67;;;;;19.67;56.37;98799.63;4853366;28;103595;-87
2023/06/12 06:58:48;;;;;;;;;3.67;2.67;;;;;19.15;58.28;98789.00;4835021;28;101973;-88
2023/06/12 07:01:17;;;;;;;;;4.00;3.33;;;;;19.28;61.42;98796.84;4845858;28;106747;-88
2023/06/12 07:03:44;;;;;;;;;3.33;3.33;;;;;19.08;58.12;98793.81;4852397;28;101767;-84
2023/06/12 07:06:11;;;;;;;;;3.67;3.67;;;;;18.95;59.58;98810.63;4853960;28;103453;-85
2023/06/12 07:08:38;;;;;;;;;3.67;3.33;;;;;19.21;57.56;98779.75;4850510;28;101459;-86
2023/06/12 07:11:05;;;;;;;;;4.00;3.67;;;;;19.02;55.91;98772.91;4883901;28;101619;-84
2023/06/12 07:13:32;;;;;;;;;4.33;4.00;;;;;18.88;59.31;98793.50;4852693;28;102072;-85
2023/06/12 07:15:59;;;;;;;;;4.00;3.67;;;;;18.73;59.91;98790.53;4874301;28;102374;-85
2023/06/12 07:18:28;;;;;;;;;3.67;3.33;;;;;18.68;60.13;98794.84;4844398;28;101827;-84
2023/06/12 07:20:55;;;;;;;;;5.33;4.00;;;;;17.96;56.84;98801.16;4855702;28;106661;-84
2023/06/12 07:23:23;;;;;;;;;4.67;4.33;;;;;18.20;61.37;98802.69;4852796;28;101897;-86
2023/06/12 07:25:50;;;;;;;;;3.00;3.00;;;;;18.23;61.35;98796.75;4840643;28;103768;-85
2023/06/12 07:28:17;;;;;;;;;5.33;4.33;;;;;17.56;58.99;98801.91;4850024;28;101336;-85
2023/06/12 07:30:44;;;;;;;;;6.33;5.00;;;;;17.18;57.83;98788.78;4852683;28;101571;-83
2023/06/12 07:33:12;;;;;;;;;4.00;4.00;;;;;17.79;59.30;98792.84;4849159;28;101740;-84
2023/06/12 07:35:39;;;;;;;;;4.67;3.00;;;;;18.27;58.16;98765.91;4854915;28;103871;-84
2023/06/12 07:38:06;;;;;;;;;4.33;4.00;;;;;18.10;57.59;98772.41;4854522;28;101584;-86
2023/06/12 07:40:33;;;;;;;;;3.33;3.33;;;;;18.52;55.46;98783.84;4851497;28;101702;-86
2023/06/12 07:43:01;;;;;;;;;3.67;3.67;;;;;18.96;57.46;98782.09;4855143;28;101878;-83
2023/06/12 07:45:28;;;;;;;;;3.00;3.00;;;;;19.13;53.08;98791.16;4857743;28;102696;-85
2023/06/12 07:47:57;;;;;;;;;4.00;3.00;;;;;19.44;55.01;98806.19;4850046;28;101951;-86
2023/06/12 07:50:25;;;;;;;;;4.00;4.00;;;;;19.14;53.15;98792.81;4855023;28;101468;-84
2023/06/12 07:52:52;;;;;;;;;4.00;4.00;;;;;18.76;53.06;98790.03;4854523;28;102312;-85
2023/06/12 07:55:20;;;;;;;;;5.67;4.00;;;;;18.78;52.08;98798.84;4846326;28;103350;-84
2023/06/12 07:57:50;;;;;;;;;5.00;5.00;;;;;18.90;49.35;98792.19;4848054;28;101631;-84
2023/06/12 08:00:17;;;;;;;;;4.67;4.00;;;;;18.70;52.99;98795.41;4844327;28;102183;-86
2023/06/12 08:02:44;;;;;;;;;2.33;2.00;;;;;18.93;54.59;98780.72;4850627;28;102135;-87
2023/06/12 08:05:12;;;;;;;;;4.00;4.00;;;;;18.52;51.16;98784.66;4879505;28;103330;-83
2023/06/12 08:07:41;;;;;;;;;5.00;5.00;;;;;18.38;54.15;98785.22;4843293;28;101411;-85
2023/06/12 08:10:08;;;;;;;;;4.00;3.67;;;;;18.29;54.83;98802.06;4855200;28;101724;-85
2023/06/12 08:12:35;;;;;;;;;3.00;3.00;;;;;18.00;56.46;98810.53;4880554;28;102314;-85
2023/06/12 08:15:02;;;;;;;;;5.67;4.00;;;;;18.53;57.48;98805.53;4848983;28;103678;-85
2023/06/12 08:17:29;;;;;;;;;5.00;4.00;;;;;18.60;54.89;98800.72;4856864;28;101376;-87
2023/06/12 08:19:57;;;;;;;;;5.00;3.67;;;;;19.17;55.79;98798.63;4854719;28;101591;-84
2023/06/12 08:22:24;;;;;;;;;4.33;3.67;;;;;19.08;52.88;98800.16;4853853;28;101852;-84
2023/06/12 08:24:51;;;;;;;;;3.00;3.00;;;;;18.99;51.08;98796.16;4857247;28;103174;-88
2023/06/12 08:27:18;;;;;;;;;2.00;2.00;;;;;18.82;51.48;98795.34;4856215;28;101892;-86
2023/06/12 08:29:45;;;;;;;;;4.00;3.67;;;;;18.91;53.10;98782.06;4860173;28;103660;-86
2023/06/12 08:32:13;;;;;;;;;4.00;3.67;;;;;18.84;53.68;98797.81;4857208;28;101830;-86
2023/06/12 08:34:40;;;;;;;;;5.67;5.00;;;;;18.77;52.76;98797.16;4858187;28;103610;-84
2023/06/12 08:37:07;;;;;;;;;3.00;3.00;;;;;18.80;53.68;98794.75;4856647;28;101373;-86
2023/06/12 08:39:34;;;;;;;;;2.33;2.00;;;;;19.22;53.18;98786.91;4860758;28;101407;-88
2023/06/12 08:42:07;;;;;;;;;4.00;4.00;;;;;19.58;54.93;98799.25;4866952;28;102155;-87
2023/06/12 08:44:35;;;;;;;;;4.00;4.00;;;;;19.67;50.79;98791.41;4865971;28;103148;-88
2023/06/12 08:47:04;;;;;;;;;3.33;2.00;;;;;19.67;52.01;98791.41;4850697;28;102644;-84
2023/06/12 08:49:31;;;;;;;;;3.67;3.00;;;;;19.87;52.82;98789.72;4856076;28;101686;-88
2023/06/12 08:52:00;;;;;;;;;5.00;4.00;;;;;19.73;51.67;98790.34;4851225;28;101820;-84
2023/06/12 08:54:28;;;;;;;;;3.33;3.33;;;;;19.25;52.80;98780.09;4852185;28;108841;-87
2023/06/12 08:56:57;;;;;;;;;3.67;3.67;;;;;19.02;52.00;98783.84;4854188;28;101924;-85
2023/06/12 08:59:24;;;;;;;;;3.67;3.00;;;;;18.72;52.22;98786.97;4845915;28;101677;-81
2023/06/12 09:01:54;;;;;;;;;4.67;4.00;;;;;18.61;53.21;98796.91;4849004;28;102433;-83
2023/06/12 09:04:56;;;;;;;;;4.00;4.00;;;;;18.78;52.22;98796.91;4840811;28;107406;-80
2023/06/12 09:07:27;;;;;;;;;5.00;4.00;;;;;18.73;52.55;98800.38;4845931;28;101526;-79
2023/06/12 09:09:55;;;;;;;;;5.00;5.00;;;;;18.12;52.65;98794.88;4843588;28;102268;-79
2023/06/12 09:12:34;;;;;;;;;4.00;4.00;;;;;17.89;53.05;98794.97;4867248;28;101930;-80
2023/06/12 09:15:01;;;;;;;;;4.00;4.00;;;;;18.27;52.36;98789.69;4852299;28;103362;-80
2023/06/12 09:17:29;;;;;;;;;5.00;4.00;;;;;18.52;53.31;98792.03;4852012;28;101586;-80
2023/06/12 09:19:56;;;;;;;;;3.33;3.00;;;;;18.68;51.00;98788.53;4842263;28;101742;-80
2023/06/12 09:22:24;;;;;;;;;4.67;4.00;;;;;18.33;51.36;98779.69;4847685;28;103061;-82
2023/06/12 09:24:51;;;;;;;;;4.00;3.00;;;;;18.55;53.57;98802.56;4852597;28;103358;-82
2023/06/12 09:27:21;;;;;;;;;4.00;4.00;;;;;18.17;53.20;98803.19;4852282;28;101521;-81
2023/06/12 09:29:48;;;;;;;;;3.00;2.00;;;;;18.34;53.16;98792.28;4849511;28;101774;-82
2023/06/12 09:32:16;;;;;;;;;4.00;4.00;;;;;18.15;54.17;98789.75;4849220;28;102269;-82
2023/06/12 09:34:50;;;;;;;;;5.33;4.33;;;;;18.08;54.57;98793.72;4853987;28;101861;-83
2023/06/12 09:37:17;;;;;;;;;3.33;3.00;;;;;18.40;51.90;98786.66;4852933;28;101876;-81
2023/06/12 09:39:44;;;;;;;;;3.67;3.67;;;;;18.88;51.03;98782.53;4846050;28;101600;-82
2023/06/12 09:42:16;;;;;;;;;3.00;3.00;;;;;18.76;52.26;98790.84;4850093;28;101568;-85
2023/06/12 09:44:43;;;;;;;;;4.33;3.67;;;;;18.29;52.44;98771.94;4846291;28;103775;-82
2023/06/12 09:47:12;;;;;;;;;5.00;4.00;;;;;17.77;50.21;98765.75;4843571;28;101653;-81
2023/06/12 09:49:39;;;;;;;;;4.00;4.00;;;;;18.29;51.39;98784.78;4850194;28;101765;-79
2023/06/12 09:52:26;;;;;;;;;4.00;4.00;;;;;18.71;54.87;98780.66;4869170;28;102284;-80
2023/06/12 09:54:54;;;;;;;;;3.00;3.00;;;;;19.39;49.05;98782.22;4846932;28;102403;-83
2023/06/12 09:57:22;;;;;;;;;3.00;3.00;;;;;19.88;48.07;98791.38;4854559;28;101553;-81
2023/06/12 09:59:56;;;;;;;;;4.00;4.00;;;;;19.63;49.78;98758.16;4849767;28;101729;-84
2023/06/12 10:02:23;;;;;;;;;2.67;2.00;;;;;20.13;50.96;98770.81;4847335;28;101371;-81
2023/06/12 10:04:59;;;;;;;;;3.33;3.33;;;;;20.15;48.11;98783.19;4845583;28;103489;-83
2023/06/12 10:07:32;;;;;;;;;4.67;4.00;;;;;19.94;46.02;98784.03;4849262;28;102376;-86
2023/06/12 10:10:02;;;;;;;;;3.00;2.67;;;;;19.35;49.61;98777.50;4854792;28;101873;-82
2023/06/12 10:12:31;;;;;;;;;3.67;3.67;;;;;18.83;48.66;98782.44;4855447;28;101937;-83
2023/06/12 10:14:59;;;;;;;;;4.33;4.33;;;;;18.82;48.84;98778.91;4849245;28;103248;-81
2023/06/12 10:17:28;;;;;;;;;2.00;2.00;;;;;18.63;51.85;98759.16;4847745;28;101567;-82
2023/06/12 10:20:00;;;;;;;;;4.00;3.33;;;;;18.48;50.25;98777.19;4851877;28;101794;-81
2023/06/12 10:22:27;;;;;;;;;5.00;5.00;;;;;18.58;51.62;98800.16;4856480;28;102028;-82
2023/06/12 10:24:57;;;;;;;;;3.67;3.67;;;;;18.67;53.77;98778.66;4847539;28;103434;-81
2023/06/12 10:27:25;;;;;;;;;5.00;5.00;;;;;18.93;50.89;98777.13;4853013;28;101672;-81
2023/06/12 10:29:57;;;;;;;;;6.00;5.00;;;;;18.68;50.92;98769.38;4841272;28;102373;-82
2023/06/12 10:32:33;;;;;;;;;4.67;4.00;;;;;18.65;47.89;98778.88;4845728;28;102065;-82
2023/06/12 10:35:01;;;;;;;;;4.00;4.00;;;;;17.99;49.50;98700.25;4850850;28;107956;-82
2023/06/12 10:37:33;;;;;;;;;5.00;4.00;;;;;17.88;49.05;98686.63;4851398;28;101685;-81
2023/06/12 10:40:09;;;;;;;;;8.00;6.67;;;;;18.08;50.03;98780.03;4852070;28;102110;-83
2023/06/12 10:42:40;;;;;;;;;4.00;4.00;;;;;18.01;49.05;98787.56;4846324;28;102407;-81
2023/06/12 10:45:30;;;;;;;;;5.00;4.00;;;;;18.45;51.02;98762.09;4845554;28;103378;-81
2023/06/12 10:48:06;;;;;;;;;2.00;2.00;;;;;18.92;51.44;98770.00;4881932;28;101988;-82
2023/06/12 10:50:47;;;;;;;;;1.67;1.67;;;;;19.14;49.36;98743.47;4854773;28;101504;-81
2023/06/12 10:53:20;;;;;;;;;4.00;4.00;;;;;18.95;47.19;98681.81;4846479;28;102472;-82
2023/06/12 10:55:47;;;;;;;;;3.00;3.00;;;;;19.85;48.18;98758.13;4876925;28;103414;-83
2023/06/12 10:58:18;;;;;;;;;2.00;2.00;;;;;20.12;45.44;98756.25;4850249;28;101726;-81
2023/06/12 11:00:48;;;;;;;;;3.67;3.67;;;;;20.11;50.54;98749.09;4849533;28;101937;-81
2023/06/12 11:03:25;;;;;;;;;3.33;3.00;;;;;19.49;44.26;98636.19;4847127;28;101680;-81
2023/06/12 11:05:56;;;;;;;;;3.33;3.33;;;;;20.05;50.00;98733.63;4848680;28;103455;-79
2023/06/12 11:08:28;;;;;;;;;3.67;2.67;;;;;20.13;47.81;98672.78;4848571;28;101694;-81
2023/06/12 11:10:55;;;;;;;;;4.00;3.00;;;;;20.12;43.57;98631.88;4848165;28;101756;-81
2023/06/12 11:13:24;;;;;;;;;3.33;3.00;;;;;20.20;42.85;98720.06;4850940;28;101894;-81
2023/06/12 11:15:54;;;;;;;;;1.67;1.67;;;;;19.45;44.44;98663.28;4839855;28;103548;-80
2023/06/12 11:18:21;;;;;;;;;2.67;2.00;;;;;19.09;47.01;98642.00;4849148;28;101853;-80
2023/06/12 11:20:53;;;;;;;;;2.33;2.33;;;;;18.75;47.45;98645.91;4857036;28;101761;-80
2023/06/12 11:23:25;;;;;;;;;3.33;3.33;;;;;19.24;48.17;98731.81;4846688;28;101600;-81
2023/06/12 11:25:57;;;;;;;;;2.00;2.00;;;;;19.70;46.49;98716.78;4875679;28;103421;-82
2023/06/12 11:28:26;;;;;;;;;4.00;1.67;;;;;19.75;43.39;98711.38;4852425;28;102309;-83
2023/06/12 11:30:54;;;;;;;;;3.33;3.33;;;;;19.87;44.49;98714.78;4846555;28;101692;-79
2023/06/12 11:33:24;;;;;;;;;2.67;2.67;;;;;19.25;45.81;98626.56;4870904;28;101645;-80